Star Quality — 9V9355 — position and weather

sailwx.info

Track history (hours):
 
Tides and Currents Weather Stations Pressure Air Temp Water Temp Dewpoint Dewpoint Depression Visibility Wind Speed Wind Dir Waves Ship Positions

Star Quality

Last reported at 2017-Nov-20 00:28 UTC. Time now 2017-Nov-21 19:26 UTC.
Position N 51°28' E 003°43'.

Length 163 m; draft 9.2 m.

Type: Cargo ship. MMSI: 566059000.

Date/timePositionNaut miles runAvg speedWind from/ knotsBaromVisibWave heightAir tempDewpointWater temp
2017-Nov-20 00:28N 51°28' E 003°43'0 0.0
2017-Nov-19 23:58N 51°28' E 003°43'0 0.0
2017-Nov-19 23:28N 51°28' E 003°43'0 0.0
2017-Nov-19 22:52N 51°28' E 003°43'0 0.0
2017-Nov-19 22:22N 51°28' E 003°43'0 0.0
2017-Nov-19 21:55N 51°28' E 003°43'0 0.0
2017-Nov-19 21:13N 51°28' E 003°43'0 0.0
2017-Nov-19 20:58N 51°28' E 003°43'0 0.0
2017-Nov-19 20:25N 51°28' E 003°43'0 0.0
2017-Nov-19 19:49N 51°28' E 003°43'0 0.0
2017-Nov-19 19:30N 51°28' E 003°43'2 4.1
2017-Nov-19 19:00N 51°27' E 003°40'5 9.3
2017-Nov-19 18:31N 51°25' E 003°33'510.4
2017-Nov-19 18:00N 51°24' E 003°25'510.4
2017-Nov-19 17:30N 51°24' E 003°17'510.9
2017-Nov-19 17:00N 51°24' E 003°08'612.0
2017-Nov-19 16:30N 51°25' E 002°58'612.7
2017-Nov-19 16:00N 51°25' E 002°48'510.9
2017-Nov-19 15:30N 51°22' E 002°41'6 7.7
2017-Nov-19 14:46N 51°22' E 002°32'516.9
2017-Nov-19 14:30N 51°21' E 002°25'816.5
2017-Nov-19 14:00N 51°19' E 002°12'917.2
2017-Nov-19 13:31N 51°23' E 002°00'815.8
2017-Nov-19 13:00N 51°29' E 001°51'917.7
2017-Nov-19 12:30N 51°30' E 001°37'713.1
2017-Nov-19 12:00N 51°26' E 001°29'612.5
2017-Nov-19 11:31N 51°29' E 001°19'713.6
2017-Nov-19 11:00N 51°29' E 001°08'713.3
2017-Nov-19 10:30N 51°29' E 000°58'713.5
2017-Nov-19 09:59N 51°28' E 000°47'2 0.2
2017-Nov-19 01:26N 51°26' E 000°44'0 0.0
2017-Nov-19 00:53N 51°26' E 000°44'0 0.0
2017-Nov-19 00:29N 51°26' E 000°44'0 0.0
2017-Nov-18 23:59N 51°26' E 000°44'0 0.0
2017-Nov-18 23:29N 51°26' E 000°44'0 0.0
2017-Nov-18 22:59N 51°26' E 000°44'0 0.0
2017-Nov-18 22:29N 51°26' E 000°44'0 0.0
2017-Nov-18 21:59N 51°26' E 000°44'0 0.0
2017-Nov-18 21:29N 51°26' E 000°44'0 0.0
2017-Nov-18 20:59N 51°26' E 000°44'0 0.0
2017-Nov-18 20:29N 51°26' E 000°44'2 3.7
2017-Nov-18 20:00N 51°28' E 000°46'714.0
2017-Nov-18 19:30N 51°29' E 000°57'816.9
2017-Nov-18 19:00N 51°33' E 001°09'816.8
2017-Nov-18 18:30N 51°37' E 001°21'917.3
2017-Nov-18 18:01N 51°44' E 001°29'714.9
2017-Nov-18 17:30N 51°49' E 001°39'713.6
2017-Nov-18 17:01N 51°42' E 001°41'816.5
2017-Nov-18 16:31N 51°34' E 001°40'816.4
2017-Nov-18 16:01N 51°27' E 001°33'3 6.7
2017-Nov-18 15:30N 51°24' E 001°34'5 9.1
2017-Nov-18 15:00N 51°22' E 001°41'4 7.4
2017-Nov-18 14:30N 51°19' E 001°41'816.5
2017-Nov-18 14:01N 51°11' E 001°37'510.0
2017-Nov-18 13:30N 51°07' E 001°41'713.2
2017-Nov-18 13:01N 51°02' E 001°33'918.3
2017-Nov-18 12:30N 50°54' E 001°25'3115.2
2017-Nov-18 10:28N 50°30' E 000°54'713.9
2017-Nov-18 10:00N 50°28' E 000°45'814.3
2017-Nov-18 09:25N 50°26' E 000°32'614.7
2017-Nov-18 09:00N 50°24' E 000°23'917.6
2017-Nov-18 08:30N 50°22' E 000°10'918.4
2017-Nov-18 08:00N 50°19' W 000°04'918.5
2017-Nov-18 07:30N 50°17' W 000°18'2718.4
2017-Nov-18 06:04N 50°10' W 000°58'1117.6
2017-Nov-18 05:26N 50°07' W 001°15'716.9
2017-Nov-18 05:00N 50°05' W 001°26'816.8
2017-Nov-18 04:30N 50°03' W 001°38'816.4
2017-Nov-18 04:00N 50°00' W 001°51'815.7
2017-Nov-18 03:30N 49°60' W 002°03'1815.3
2017-Nov-18 02:19N 49°54' W 002°30'514.9
2017-Nov-18 02:00N 49°53' W 002°36'915.0
2017-Nov-18 01:24N 49°51' W 002°50'615.3
2017-Nov-18 01:00N 49°49' W 002°59'815.5
2017-Nov-18 00:30N 49°47' W 003°11'815.5
2017-Nov-18 00:00N 49°45' W 003°22'815.5
2017-Nov-17 23:28N 49°43' W 003°35'815.3
2017-Nov-17 22:56N 49°42' W 003°47'715.3
2017-Nov-17 22:30N 49°40' W 003°57'912.3
2017-Nov-17 21:49N 49°38' W 004°10'0 0.7
2017-Nov-17 21:28N 49°38' W 004°10'1 0.8
2017-Nov-17 20:50N 49°38' W 004°10'3 5.5
2017-Nov-17 20:22N 49°37' W 004°14'514.7
2017-Nov-17 20:01N 49°36' W 004°22'5 4.7
2017-Nov-17 18:57N 49°34' W 004°29'1 1.5
2017-Nov-17 18:30N 49°34' W 004°30'1511.8
2017-Nov-17 17:12N 49°30' W 004°53'416.9
2017-Nov-17 16:59N 49°29' W 004°59'6116.9
2017-Nov-17 13:23N 48°54' W 006°15'3416.3
2017-Nov-17 11:16N 48°35' W 006°58'1815.4
2017-Nov-17 10:07N 48°24' W 007°20'1714.8
2017-Nov-17 08:57N 48°15' W 007°41'714.8
2017-Nov-17 08:29N 48°11' W 007°50'  
2017-Nov-14 12:45N 38°59' W 026°03'516.4
2017-Nov-14 12:25N 38°56' W 026°08'1216.1
2017-Nov-14 11:39N 38°49' W 026°21'316.4
2017-Nov-14 11:27N 38°47' W 026°25'715.9
2017-Nov-14 11:00N 38°43' W 026°32'815.8
2017-Nov-14 10:30N 38°39' W 026°40'916.6
2017-Nov-14 09:59N 38°34' W 026°49'816.5
2017-Nov-14 09:30N 38°29' W 026°58'816.1
2017-Nov-14 09:00N 38°25' W 027°07'815.7
2017-Nov-14 08:30N 38°22' W 027°16'816.1
2017-Nov-14 08:00N 38°18' W 027°25'816.2
2017-Nov-14 07:30N 38°14' W 027°34'816.4
2017-Nov-14 07:00N 38°10' W 027°43'815.8
2017-Nov-14 06:31N 38°07' W 027°52'815.5
2017-Nov-14 06:00N 38°03' W 028°01'815.7
2017-Nov-14 05:30N 37°59' W 028°10'815.7
2017-Nov-14 05:00N 37°56' W 028°18'815.4
2017-Nov-14 04:30N 37°52' W 028°27'815.3
2017-Nov-14 04:00N 37°49' W 028°36'815.2
2017-Nov-14 03:30N 37°45' W 028°44'815.5
2017-Nov-14 03:00N 37°41' W 028°53'815.9
2017-Nov-14 02:30N 37°38' W 029°02'815.5
2017-Nov-14 02:00N 37°34' W 029°10'815.6
2017-Nov-14 01:30N 37°30' W 029°19'815.9
2017-Nov-14 01:00N 37°27' W 029°28'815.7
2017-Nov-14 00:30N 37°23' W 029°37'1315.5
2017-Nov-13 23:42N 37°17' W 029°51'515.6
2017-Nov-13 23:24N 37°15' W 029°56'  
Track history (hours):
 
Tides and Currents Weather Stations Pressure Air Temp Water Temp Dewpoint Dewpoint Depression Visibility Wind Speed Wind Dir Waves Ship Positions

Star Quality

Last reported at 2017-Nov-20 00:28 UTC. Time now 2017-Nov-21 19:26 UTC.
Position N 51°28' E 003°43'.

Length 163 m; draft 9.2 m.

Type: Cargo ship. MMSI: 566059000.

Date/timePositionNaut miles runAvg speedWind from/ knotsBaromVisibWave heightAir tempDewpointWater temp
2017-Nov-20 00:28N 51°28' E 003°43'0 0.0
2017-Nov-19 23:58N 51°28' E 003°43'0 0.0
2017-Nov-19 23:28N 51°28' E 003°43'0 0.0
2017-Nov-19 22:52N 51°28' E 003°43'0 0.0
2017-Nov-19 22:22N 51°28' E 003°43'0 0.0
2017-Nov-19 21:55N 51°28' E 003°43'0 0.0
2017-Nov-19 21:13N 51°28' E 003°43'0 0.0
2017-Nov-19 20:58N 51°28' E 003°43'0 0.0
2017-Nov-19 20:25N 51°28' E 003°43'0 0.0
2017-Nov-19 19:49N 51°28' E 003°43'0 0.0
2017-Nov-19 19:30N 51°28' E 003°43'2 4.1
2017-Nov-19 19:00N 51°27' E 003°40'5 9.3
2017-Nov-19 18:31N 51°25' E 003°33'510.4
2017-Nov-19 18:00N 51°24' E 003°25'510.4
2017-Nov-19 17:30N 51°24' E 003°17'510.9
2017-Nov-19 17:00N 51°24' E 003°08'612.0
2017-Nov-19 16:30N 51°25' E 002°58'612.7
2017-Nov-19 16:00N 51°25' E 002°48'510.9
2017-Nov-19 15:30N 51°22' E 002°41'6 7.7
2017-Nov-19 14:46N 51°22' E 002°32'516.9
2017-Nov-19 14:30N 51°21' E 002°25'816.5
2017-Nov-19 14:00N 51°19' E 002°12'917.2
2017-Nov-19 13:31N 51°23' E 002°00'815.8
2017-Nov-19 13:00N 51°29' E 001°51'917.7
2017-Nov-19 12:30N 51°30' E 001°37'713.1
2017-Nov-19 12:00N 51°26' E 001°29'612.5
2017-Nov-19 11:31N 51°29' E 001°19'713.6
2017-Nov-19 11:00N 51°29' E 001°08'713.3
2017-Nov-19 10:30N 51°29' E 000°58'713.5
2017-Nov-19 09:59N 51°28' E 000°47'2 0.2
2017-Nov-19 01:26N 51°26' E 000°44'0 0.0
2017-Nov-19 00:53N 51°26' E 000°44'0 0.0
2017-Nov-19 00:29N 51°26' E 000°44'0 0.0
2017-Nov-18 23:59N 51°26' E 000°44'0 0.0
2017-Nov-18 23:29N 51°26' E 000°44'0 0.0
2017-Nov-18 22:59N 51°26' E 000°44'0 0.0
2017-Nov-18 22:29N 51°26' E 000°44'0 0.0
2017-Nov-18 21:59N 51°26' E 000°44'0 0.0
2017-Nov-18 21:29N 51°26' E 000°44'0 0.0
2017-Nov-18 20:59N 51°26' E 000°44'0 0.0
2017-Nov-18 20:29N 51°26' E 000°44'2 3.7
2017-Nov-18 20:00N 51°28' E 000°46'714.0
2017-Nov-18 19:30N 51°29' E 000°57'816.9
2017-Nov-18 19:00N 51°33' E 001°09'816.8
2017-Nov-18 18:30N 51°37' E 001°21'917.3
2017-Nov-18 18:01N 51°44' E 001°29'714.9
2017-Nov-18 17:30N 51°49' E 001°39'713.6
2017-Nov-18 17:01N 51°42' E 001°41'816.5
2017-Nov-18 16:31N 51°34' E 001°40'816.4
2017-Nov-18 16:01N 51°27' E 001°33'3 6.7
2017-Nov-18 15:30N 51°24' E 001°34'5 9.1
2017-Nov-18 15:00N 51°22' E 001°41'4 7.4
2017-Nov-18 14:30N 51°19' E 001°41'816.5
2017-Nov-18 14:01N 51°11' E 001°37'510.0
2017-Nov-18 13:30N 51°07' E 001°41'713.2
2017-Nov-18 13:01N 51°02' E 001°33'918.3
2017-Nov-18 12:30N 50°54' E 001°25'3115.2
2017-Nov-18 10:28N 50°30' E 000°54'713.9
2017-Nov-18 10:00N 50°28' E 000°45'814.3
2017-Nov-18 09:25N 50°26' E 000°32'614.7
2017-Nov-18 09:00N 50°24' E 000°23'917.6
2017-Nov-18 08:30N 50°22' E 000°10'918.4
2017-Nov-18 08:00N 50°19' W 000°04'918.5
2017-Nov-18 07:30N 50°17' W 000°18'2718.4
2017-Nov-18 06:04N 50°10' W 000°58'1117.6
2017-Nov-18 05:26N 50°07' W 001°15'716.9
2017-Nov-18 05:00N 50°05' W 001°26'816.8
2017-Nov-18 04:30N 50°03' W 001°38'816.4
2017-Nov-18 04:00N 50°00' W 001°51'815.7
2017-Nov-18 03:30N 49°60' W 002°03'1815.3
2017-Nov-18 02:19N 49°54' W 002°30'514.9
2017-Nov-18 02:00N 49°53' W 002°36'915.0
2017-Nov-18 01:24N 49°51' W 002°50'615.3
2017-Nov-18 01:00N 49°49' W 002°59'815.5
2017-Nov-18 00:30N 49°47' W 003°11'815.5
2017-Nov-18 00:00N 49°45' W 003°22'815.5
2017-Nov-17 23:28N 49°43' W 003°35'815.3
2017-Nov-17 22:56N 49°42' W 003°47'715.3
2017-Nov-17 22:30N 49°40' W 003°57'912.3
2017-Nov-17 21:49N 49°38' W 004°10'0 0.7
2017-Nov-17 21:28N 49°38' W 004°10'1 0.8
2017-Nov-17 20:50N 49°38' W 004°10'3 5.5
2017-Nov-17 20:22N 49°37' W 004°14'514.7
2017-Nov-17 20:01N 49°36' W 004°22'5 4.7
2017-Nov-17 18:57N 49°34' W 004°29'1 1.5
2017-Nov-17 18:30N 49°34' W 004°30'1511.8
2017-Nov-17 17:12N 49°30' W 004°53'416.9
2017-Nov-17 16:59N 49°29' W 004°59'6116.9
2017-Nov-17 13:23N 48°54' W 006°15'3416.3
2017-Nov-17 11:16N 48°35' W 006°58'1815.4
2017-Nov-17 10:07N 48°24' W 007°20'1714.8
2017-Nov-17 08:57N 48°15' W 007°41'714.8
2017-Nov-17 08:29N 48°11' W 007°50'  
2017-Nov-14 12:45N 38°59' W 026°03'516.4
2017-Nov-14 12:25N 38°56' W 026°08'1216.1
2017-Nov-14 11:39N 38°49' W 026°21'316.4
2017-Nov-14 11:27N 38°47' W 026°25'715.9
2017-Nov-14 11:00N 38°43' W 026°32'815.8
2017-Nov-14 10:30N 38°39' W 026°40'916.6
2017-Nov-14 09:59N 38°34' W 026°49'816.5
2017-Nov-14 09:30N 38°29' W 026°58'816.1
2017-Nov-14 09:00N 38°25' W 027°07'815.7
2017-Nov-14 08:30N 38°22' W 027°16'816.1
2017-Nov-14 08:00N 38°18' W 027°25'816.2
2017-Nov-14 07:30N 38°14' W 027°34'816.4
2017-Nov-14 07:00N 38°10' W 027°43'815.8
2017-Nov-14 06:31N 38°07' W 027°52'815.5
2017-Nov-14 06:00N 38°03' W 028°01'815.7
2017-Nov-14 05:30N 37°59' W 028°10'815.7
2017-Nov-14 05:00N 37°56' W 028°18'815.4
2017-Nov-14 04:30N 37°52' W 028°27'815.3
2017-Nov-14 04:00N 37°49' W 028°36'815.2
2017-Nov-14 03:30N 37°45' W 028°44'815.5
2017-Nov-14 03:00N 37°41' W 028°53'815.9
2017-Nov-14 02:30N 37°38' W 029°02'815.5
2017-Nov-14 02:00N 37°34' W 029°10'815.6
2017-Nov-14 01:30N 37°30' W 029°19'815.9
2017-Nov-14 01:00N 37°27' W 029°28'815.7
2017-Nov-14 00:30N 37°23' W 029°37'1315.5
2017-Nov-13 23:42N 37°17' W 029°51'515.6
2017-Nov-13 23:24N 37°15' W 029°56'  

Dump ship's entire track history